sensor_id;sensor_type;location;lat;lon;timestamp;pressure;altitude;pressure_sealevel;temperature;humidity
19526;BME280;9907;42.676;26.348;2023-01-15T00:00:59;99554.50;;;5.40;100.00
19526;BME280;9907;42.676;26.348;2023-01-15T00:03:25;99541.44;;;5.37;100.00
19526;BME280;9907;42.676;26.348;2023-01-15T00:05:50;99539.47;;;5.40;100.00
19526;BME280;9907;42.676;26.348;2023-01-15T00:08:16;99545.81;;;5.38;100.00
19526;BME280;9907;42.676;26.348;2023-01-15T00:10:41;99547.31;;;5.42;100.00
19526;BME280;9907;42.676;26.348;2023-01-15T00:13:07;99543.53;;;5.46;100.00
19526;BME280;9907;42.676;26.348;2023-01-15T00:15:32;99548.66;;;5.49;100.00
19526;BME280;9907;42.676;26.348;2023-01-15T00:17:58;99545.88;;;5.51;100.00
19526;BME280;9907;42.676;26.348;2023-01-15T00:20:23;99548.38;;;5.54;100.00
19526;BME280;9907;42.676;26.348;2023-01-15T00:22:49;99550.53;;;5.47;100.00
19526;BME280;9907;42.676;26.348;2023-01-15T00:25:14;99544.09;;;5.51;100.00
19526;BME280;9907;42.676;26.348;2023-01-15T00:27:58;99545.53;;;5.43;100.00
19526;BME280;9907;42.676;26.348;2023-01-15T00:30:23;99544.41;;;5.47;100.00
19526;BME280;9907;42.676;26.348;2023-01-15T00:32:49;99546.94;;;5.48;100.00
19526;BME280;9907;42.676;26.348;2023-01-15T00:35:22;99542.41;;;5.50;100.00
19526;BME280;9907;42.676;26.348;2023-01-15T00:37:48;99544.88;;;5.53;100.00
19526;BME280;9907;42.676;26.348;2023-01-15T00:40:15;99542.78;;;5.44;100.00
19526;BME280;9907;42.676;26.348;2023-01-15T00:42:40;99545.13;;;5.34;100.00
19526;BME280;9907;42.676;26.348;2023-01-15T00:45:07;99542.22;;;5.39;100.00
19526;BME280;9907;42.676;26.348;2023-01-15T00:47:41;99542.22;;;5.39;100.00
19526;BME280;9907;42.676;26.348;2023-01-15T00:50:10;99547.31;;;5.42;100.00
19526;BME280;9907;42.676;26.348;2023-01-15T00:52:36;99547.50;;;5.39;100.00
19526;BME280;9907;42.676;26.348;2023-01-15T00:55:02;99542.88;;;5.43;100.00
19526;BME280;9907;42.676;26.348;2023-01-15T00:57:28;99541.75;;;5.47;100.00
19526;BME280;9907;42.676;26.348;2023-01-15T00:59:53;99546.94;;;5.48;100.00
19526;BME280;9907;42.676;26.348;2023-01-15T01:02:19;99538.06;;;5.49;100.00
19526;BME280;9907;42.676;26.348;2023-01-15T01:04:44;99540.59;;;5.51;100.00
19526;BME280;9907;42.676;26.348;2023-01-15T01:07:10;99534.34;;;5.52;100.00
19526;BME280;9907;42.676;26.348;2023-01-15T01:09:36;99533.41;;;5.53;100.00
19526;BME280;9907;42.676;26.348;2023-01-15T01:12:01;99536.00;;;5.54;100.00
19526;BME280;9907;42.676;26.348;2023-01-15T01:14:27;99535.00;;;5.55;100.00
19526;BME280;9907;42.676;26.348;2023-01-15T01:16:52;99539.84;;;5.49;100.00
19526;BME280;9907;42.676;26.348;2023-01-15T01:19:20;99531.72;;;5.52;100.00
19526;BME280;9907;42.676;26.348;2023-01-15T01:21:47;99528.97;;;5.53;100.00
19526;BME280;9907;42.676;26.348;2023-01-15T01:24:19;99527.94;;;5.56;100.00
19526;BME280;9907;42.676;26.348;2023-01-15T01:26:45;99524.34;;;5.57;100.00
19526;BME280;9907;42.676;26.348;2023-01-15T01:29:12;99527.06;;;5.55;100.00
19526;BME280;9907;42.676;26.348;2023-01-15T01:31:38;99520.16;;;5.53;100.00
19526;BME280;9907;42.676;26.348;2023-01-15T01:34:04;99514.78;;;5.54;100.00
19526;BME280;9907;42.676;26.348;2023-01-15T01:36:31;99520.84;;;5.56;100.00
19526;BME280;9907;42.676;26.348;2023-01-15T01:38:58;99519.91;;;5.57;100.00
19526;BME280;9907;42.676;26.348;2023-01-15T01:41:24;99518.38;;;5.39;100.00
19526;BME280;9907;42.676;26.348;2023-01-15T01:46:32;99525.28;;;4.98;100.00
19526;BME280;9907;42.676;26.348;2023-01-15T01:49:06;99516.91;;;5.05;100.00
19526;BME280;9907;42.676;26.348;2023-01-15T01:51:45;99525.03;;;5.02;100.00
19526;BME280;9907;42.676;26.348;2023-01-15T01:54:16;99524.72;;;5.07;100.00
19526;BME280;9907;42.676;26.348;2023-01-15T01:56:44;99518.69;;;5.05;100.00
19526;BME280;9907;42.676;26.348;2023-01-15T01:59:10;99521.47;;;5.17;100.00
19526;BME280;9907;42.676;26.348;2023-01-15T02:01:36;99519.50;;;5.21;100.00
19526;BME280;9907;42.676;26.348;2023-01-15T02:04:05;99522.63;;;5.27;100.00
19526;BME280;9907;42.676;26.348;2023-01-15T02:06:32;99516.06;;;5.33;100.00
19526;BME280;9907;42.676;26.348;2023-01-15T02:08:58;99517.59;;;5.23;100.00
19526;BME280;9907;42.676;26.348;2023-01-15T02:11:24;99516.84;;;5.21;100.00
19526;BME280;9907;42.676;26.348;2023-01-15T02:14:35;99517.66;;;5.21;100.00
19526;BME280;9907;42.676;26.348;2023-01-15T02:16:46;99521.09;;;5.23;100.00
19526;BME280;9907;42.676;26.348;2023-01-15T02:25:07;99525.25;;;5.27;100.00
19526;BME280;9907;42.676;26.348;2023-01-15T02:27:40;99517.59;;;5.23;100.00
19526;BME280;9907;42.676;26.348;2023-01-15T02:32:45;99522.66;;;5.12;100.00
19526;BME280;9907;42.676;26.348;2023-01-15T02:35:19;99514.72;;;5.12;100.00
19526;BME280;9907;42.676;26.348;2023-01-15T02:37:53;99517.78;;;5.20;100.00
19526;BME280;9907;42.676;26.348;2023-01-15T02:40:21;99513.69;;;5.28;100.00
19526;BME280;9907;42.676;26.348;2023-01-15T02:42:48;99519.69;;;5.32;100.00
19526;BME280;9907;42.676;26.348;2023-01-15T02:45:21;99519.50;;;5.35;100.00
19526;BME280;9907;42.676;26.348;2023-01-15T02:47:52;99521.97;;;5.38;100.00
19526;BME280;9907;42.676;26.348;2023-01-15T02:50:23;99522.69;;;5.40;100.00
19526;BME280;9907;42.676;26.348;2023-01-15T02:52:53;99523.56;;;5.40;100.00
19526;BME280;9907;42.676;26.348;2023-01-15T02:55:28;99519.97;;;5.42;100.00
19526;BME280;9907;42.676;26.348;2023-01-15T02:57:57;99514.75;;;5.40;100.00
19526;BME280;9907;42.676;26.348;2023-01-15T03:00:29;99515.22;;;5.32;100.00
19526;BME280;9907;42.676;26.348;2023-01-15T03:03:02;99519.59;;;5.33;100.00
19526;BME280;9907;42.676;26.348;2023-01-15T03:05:39;99521.38;;;5.33;100.00
19526;BME280;9907;42.676;26.348;2023-01-15T03:08:07;99529.13;;;5.36;100.00
19526;BME280;9907;42.676;26.348;2023-01-15T03:10:41;99520.25;;;5.37;100.00
19526;BME280;9907;42.676;26.348;2023-01-15T03:13:20;99516.75;;;5.36;100.00
19526;BME280;9907;42.676;26.348;2023-01-15T03:15:55;99517.13;;;5.30;100.00
19526;BME280;9907;42.676;26.348;2023-01-15T03:18:50;99520.63;;;5.31;100.00
19526;BME280;9907;42.676;26.348;2023-01-15T03:21:27;99516.47;;;5.27;100.00
19526;BME280;9907;42.676;26.348;2023-01-15T03:23:54;99517.84;;;5.18;100.00
19526;BME280;9907;42.676;26.348;2023-01-15T03:26:20;99522.28;;;5.18;100.00
19526;BME280;9907;42.676;26.348;2023-01-15T03:28:47;99514.75;;;5.26;100.00
19526;BME280;9907;42.676;26.348;2023-01-15T03:31:13;99513.53;;;5.31;100.00
19526;BME280;9907;42.676;26.348;2023-01-15T03:33:39;99515.13;;;5.34;100.00
19526;BME280;9907;42.676;26.348;2023-01-15T03:36:05;99517.72;;;5.35;100.00
19526;BME280;9907;42.676;26.348;2023-01-15T03:38:33;99509.09;;;5.32;100.00
19526;BME280;9907;42.676;26.348;2023-01-15T03:42:09;99517.03;;;5.32;100.00
19526;BME280;9907;42.676;26.348;2023-01-15T03:44:31;99504.53;;;5.34;100.00
19526;BME280;9907;42.676;26.348;2023-01-15T03:47:21;99516.75;;;5.36;100.00
19526;BME280;9907;42.676;26.348;2023-01-15T03:55:05;99508.41;;;5.28;100.00
19526;BME280;9907;42.676;26.348;2023-01-15T03:57:48;99516.94;;;5.33;100.00
19526;BME280;9907;42.676;26.348;2023-01-15T04:00:18;99507.72;;;5.25;100.00
19526;BME280;9907;42.676;26.348;2023-01-15T04:02:45;99507.56;;;5.28;100.00
19526;BME280;9907;42.676;26.348;2023-01-15T04:05:12;99512.69;;;5.31;100.00
19526;BME280;9907;42.676;26.348;2023-01-15T04:07:39;99513.69;;;5.28;100.00
19526;BME280;9907;42.676;26.348;2023-01-15T04:10:09;99515.41;;;5.29;100.00
19526;BME280;9907;42.676;26.348;2023-01-15T04:12:35;99517.03;;;5.32;100.00
19526;BME280;9907;42.676;26.348;2023-01-15T04:15:00;99517.97;;;5.31;100.00
19526;BME280;9907;42.676;26.348;2023-01-15T04:17:26;99527.53;;;5.33;100.00
19526;BME280;9907;42.676;26.348;2023-01-15T04:19:51;99529.69;;;5.27;100.00
19526;BME280;9907;42.676;26.348;2023-01-15T04:22:17;99528.66;;;5.29;100.00
19526;BME280;9907;42.676;26.348;2023-01-15T04:24:42;99521.09;;;5.23;100.00
19526;BME280;9907;42.676;26.348;2023-01-15T04:27:08;99518.22;;;5.12;100.00
19526;BME280;9907;42.676;26.348;2023-01-15T04:29:33;99521.53;;;5.16;100.00
19526;BME280;9907;42.676;26.348;2023-01-15T04:31:58;99521.09;;;5.23;100.00
19526;BME280;9907;42.676;26.348;2023-01-15T04:34:25;99535.75;;;5.29;100.00
19526;BME280;9907;42.676;26.348;2023-01-15T04:36:51;99533.09;;;5.29;100.00
19526;BME280;9907;42.676;26.348;2023-01-15T04:39:17;99539.72;;;5.22;100.00
19526;BME280;9907;42.676;26.348;2023-01-15T04:41:42;99542.94;;;5.27;100.00
19526;BME280;9907;42.676;26.348;2023-01-15T04:44:26;99537.72;;;5.25;100.00
19526;BME280;9907;42.676;26.348;2023-01-15T04:46:54;99544.06;;;5.23;100.00
19526;BME280;9907;42.676;26.348;2023-01-15T04:49:22;99541.41;;;5.23;100.00
19526;BME280;9907;42.676;26.348;2023-01-15T04:51:47;99556.34;;;5.10;100.00
19526;BME280;9907;42.676;26.348;2023-01-15T04:54:14;99549.13;;;4.98;100.00
19526;BME280;9907;42.676;26.348;2023-01-15T04:56:49;99557.06;;;4.98;100.00
19526;BME280;9907;42.676;26.348;2023-01-15T04:59:16;99550.59;;;4.87;100.00
19526;BME280;9907;42.676;26.348;2023-01-15T05:01:42;99557.06;;;4.98;100.00
19526;BME280;9907;42.676;26.348;2023-01-15T05:04:07;99559.06;;;5.08;100.00
19526;BME280;9907;42.676;26.348;2023-01-15T05:06:33;99557.84;;;5.14;100.00
19526;BME280;9907;42.676;26.348;2023-01-15T05:09:00;99562.22;;;5.15;100.00
19526;BME280;9907;42.676;26.348;2023-01-15T05:11:26;99560.13;;;5.06;100.00
19526;BME280;9907;42.676;26.348;2023-01-15T05:13:52;99566.09;;;5.09;100.00
19526;BME280;9907;42.676;26.348;2023-01-15T05:16:21;99571.88;;;5.16;100.00
19526;BME280;9907;42.676;26.348;2023-01-15T05:18:50;99572.47;;;5.21;100.00
19526;BME280;9907;42.676;26.348;2023-01-15T05:21:20;99574.06;;;5.23;100.00
19526;BME280;9907;42.676;26.348;2023-01-15T05:23:50;99573.94;;;5.25;100.00
19526;BME280;9907;42.676;26.348;2023-01-15T05:26:16;99570.75;;;5.20;100.00
19526;BME280;9907;42.676;26.348;2023-01-15T05:28:42;99566.19;;;5.22;100.00
19526;BME280;9907;42.676;26.348;2023-01-15T05:31:13;99565.06;;;5.26;100.00
19526;BME280;9907;42.676;26.348;2023-01-15T05:33:39;99573.03;;;5.26;100.00
19526;BME280;9907;42.676;26.348;2023-01-15T05:36:08;99574.06;;;5.23;100.00
19526;BME280;9907;42.676;26.348;2023-01-15T05:38:34;99563.28;;;5.26;100.00
19526;BME280;9907;42.676;26.348;2023-01-15T05:41:03;99564.13;;;5.27;100.00
19526;BME280;9907;42.676;26.348;2023-01-15T05:43:49;99566.97;;;5.24;100.00
19526;BME280;9907;42.676;26.348;2023-01-15T05:46:14;99565.84;;;5.28;100.00
19526;BME280;9907;42.676;26.348;2023-01-15T05:48:40;99574.34;;;5.33;100.00
19526;BME280;9907;42.676;26.348;2023-01-15T05:51:05;99575.22;;;5.33;100.00
19526;BME280;9907;42.676;26.348;2023-01-15T05:53:31;99576.22;;;5.17;100.00
19526;BME280;9907;42.676;26.348;2023-01-15T05:56:02;99581.41;;;5.18;100.00
19526;BME280;9907;42.676;26.348;2023-01-15T05:58:29;99576.91;;;5.20;100.00
19526;BME280;9907;42.676;26.348;2023-01-15T06:00:55;99577.47;;;5.25;100.00
19526;BME280;9907;42.676;26.348;2023-01-15T06:03:21;99575.09;;;5.21;100.00
19526;BME280;9907;42.676;26.348;2023-01-15T06:05:53;99578.50;;;5.23;100.00
19526;BME280;9907;42.676;26.348;2023-01-15T06:08:20;99569.31;;;5.28;100.00
19526;BME280;9907;42.676;26.348;2023-01-15T06:10:46;99570.38;;;5.26;100.00
19526;BME280;9907;42.676;26.348;2023-01-15T06:13:12;99577.38;;;5.27;100.00
19526;BME280;9907;42.676;26.348;2023-01-15T06:15:38;99573.28;;;5.21;100.00
19526;BME280;9907;42.676;26.348;2023-01-15T06:18:04;99571.66;;;5.05;100.00
19526;BME280;9907;42.676;26.348;2023-01-15T06:20:29;99576.56;;;5.11;100.00
19526;BME280;9907;42.676;26.348;2023-01-15T06:22:55;99571.88;;;5.16;100.00
19526;BME280;9907;42.676;26.348;2023-01-15T06:25:20;99571.06;;;5.00;100.00
19526;BME280;9907;42.676;26.348;2023-01-15T06:27:46;99575.81;;;5.09;100.00
19526;BME280;9907;42.676;26.348;2023-01-15T06:30:14;99566.56;;;5.16;100.00
19526;BME280;9907;42.676;26.348;2023-01-15T06:32:40;99566.78;;;4.97;100.00
19526;BME280;9907;42.676;26.348;2023-01-15T06:35:06;99558.09;;;4.95;100.00
19526;BME280;9907;42.676;26.348;2023-01-15T06:37:31;99568.09;;;4.90;100.00
19526;BME280;9907;42.676;26.348;2023-01-15T06:39:57;99573.44;;;5.04;100.00
19526;BME280;9907;42.676;26.348;2023-01-15T06:42:22;99571.00;;;5.15;100.00
19526;BME280;9907;42.676;26.348;2023-01-15T06:45:09;99572.28;;;5.24;100.00
19526;BME280;9907;42.676;26.348;2023-01-15T06:47:53;99570.47;;;5.24;100.00
19526;BME280;9907;42.676;26.348;2023-01-15T06:50:18;99572.63;;;5.18;100.00
19526;BME280;9907;42.676;26.348;2023-01-15T06:52:43;99573.59;;;5.17;100.00
19526;BME280;9907;42.676;26.348;2023-01-15T06:55:09;99576.13;;;5.18;100.00
19526;BME280;9907;42.676;26.348;2023-01-15T06:57:37;99579.44;;;5.22;100.00
19526;BME280;9907;42.676;26.348;2023-01-15T07:00:05;99585.50;;;5.24;100.00
19526;BME280;9907;42.676;26.348;2023-01-15T07:02:31;99578.13;;;5.29;100.00
19526;BME280;9907;42.676;26.348;2023-01-15T07:04:56;99570.78;;;5.34;100.00
19526;BME280;9907;42.676;26.348;2023-01-15T07:07:21;99578.34;;;5.40;100.00
19526;BME280;9907;42.676;26.348;2023-01-15T07:09:48;99575.53;;;5.43;100.00
19526;BME280;9907;42.676;26.348;2023-01-15T07:12:13;99575.34;;;5.46;100.00
19526;BME280;9907;42.676;26.348;2023-01-15T07:14:39;99569.00;;;5.49;100.00
19526;BME280;9907;42.676;26.348;2023-01-15T07:17:04;99569.75;;;5.51;100.00
19526;BME280;9907;42.676;26.348;2023-01-15T07:19:30;99567.78;;;5.54;100.00
19526;BME280;9907;42.676;26.348;2023-01-15T07:21:56;99572.03;;;5.57;100.00
19526;BME280;9907;42.676;26.348;2023-01-15T07:24:21;99570.44;;;5.54;100.00
19526;BME280;9907;42.676;26.348;2023-01-15T07:26:47;99572.03;;;5.57;100.00
19526;BME280;9907;42.676;26.348;2023-01-15T07:29:13;99576.97;;;5.63;100.00
19526;BME280;9907;42.676;26.348;2023-01-15T07:31:38;99575.09;;;5.65;100.00
19526;BME280;9907;42.676;26.348;2023-01-15T07:34:05;99579.34;;;5.67;100.00
19526;BME280;9907;42.676;26.348;2023-01-15T07:36:31;99572.91;;;5.71;100.00
19526;BME280;9907;42.676;26.348;2023-01-15T07:38:56;99570.13;;;5.73;100.00
19526;BME280;9907;42.676;26.348;2023-01-15T07:41:22;99576.22;;;5.75;100.00
19526;BME280;9907;42.676;26.348;2023-01-15T07:44:09;99577.94;;;5.76;100.00
19526;BME280;9907;42.676;26.348;2023-01-15T07:46:53;99579.44;;;5.80;100.00
19526;BME280;9907;42.676;26.348;2023-01-15T07:49:38;99575.63;;;5.84;100.00
19526;BME280;9907;42.676;26.348;2023-01-15T07:52:22;99572.16;;;5.83;100.00
19526;BME280;9907;42.676;26.348;2023-01-15T07:54:49;99589.75;;;5.84;100.00
19526;BME280;9907;42.676;26.348;2023-01-15T07:57:17;99584.75;;;5.80;100.00
19526;BME280;9907;42.676;26.348;2023-01-15T07:59:43;99585.88;;;5.76;100.00
19526;BME280;9907;42.676;26.348;2023-01-15T08:02:09;99595.72;;;5.74;100.00
19526;BME280;9907;42.676;26.348;2023-01-15T08:04:34;99598.16;;;5.63;100.00
19526;BME280;9907;42.676;26.348;2023-01-15T08:07:01;99593.78;;;5.62;100.00
19526;BME280;9907;42.676;26.348;2023-01-15T08:09:27;99588.47;;;5.33;100.00
19526;BME280;9907;42.676;26.348;2023-01-15T08:11:53;99593.16;;;5.28;100.00
19526;BME280;9907;42.676;26.348;2023-01-15T08:14:37;99587.25;;;5.39;100.00
19526;BME280;9907;42.676;26.348;2023-01-15T08:17:21;99586.41;;;5.53;100.00
19526;BME280;9907;42.676;26.348;2023-01-15T08:19:47;99595.63;;;5.61;100.00
19526;BME280;9907;42.676;26.348;2023-01-15T08:22:12;99595.22;;;5.67;100.00
19526;BME280;9907;42.676;26.348;2023-01-15T08:24:38;99591.34;;;5.73;100.00
19526;BME280;9907;42.676;26.348;2023-01-15T08:27:03;99602.66;;;5.76;100.00
19526;BME280;9907;42.676;26.348;2023-01-15T08:29:29;99603.38;;;5.78;100.00
19526;BME280;9907;42.676;26.348;2023-01-15T08:31:54;99597.16;;;5.79;100.00
19526;BME280;9907;42.676;26.348;2023-01-15T08:34:20;99602.06;;;5.71;100.00
19526;BME280;9907;42.676;26.348;2023-01-15T08:36:45;99607.25;;;5.73;100.00
19526;BME280;9907;42.676;26.348;2023-01-15T08:39:11;99607.38;;;5.71;100.00
19526;BME280;9907;42.676;26.348;2023-01-15T08:41:37;99610.94;;;5.56;100.00
19526;BME280;9907;42.676;26.348;2023-01-15T08:44:02;99608.88;;;5.61;100.00
19526;BME280;9907;42.676;26.348;2023-01-15T08:46:28;99614.72;;;5.66;100.00
19526;BME280;9907;42.676;26.348;2023-01-15T08:48:53;99613.53;;;5.72;100.00
19526;BME280;9907;42.676;26.348;2023-01-15T08:51:19;99608.88;;;5.75;100.00
19526;BME280;9907;42.676;26.348;2023-01-15T08:53:44;99609.63;;;5.77;100.00
19526;BME280;9907;42.676;26.348;2023-01-15T08:56:15;99606.78;;;5.80;100.00
19526;BME280;9907;42.676;26.348;2023-01-15T08:58:40;99610.28;;;5.81;100.00
19526;BME280;9907;42.676;26.348;2023-01-15T09:01:08;99609.75;;;5.76;100.00
19526;BME280;9907;42.676;26.348;2023-01-15T09:03:35;99606.03;;;5.78;100.00
19526;BME280;9907;42.676;26.348;2023-01-15T09:06:01;99601.00;;;5.74;100.00
19526;BME280;9907;42.676;26.348;2023-01-15T09:08:27;99601.28;;;5.55;100.00
19526;BME280;9907;42.676;26.348;2023-01-15T09:11:01;99599.75;;;5.51;100.00
19526;BME280;9907;42.676;26.348;2023-01-15T09:13:28;99598.28;;;5.61;100.00
19526;BME280;9907;42.676;26.348;2023-01-15T09:15:58;99602.53;;;5.64;100.00
19526;BME280;9907;42.676;26.348;2023-01-15T09:18:23;99597.88;;;5.67;100.00
19526;BME280;9907;42.676;26.348;2023-01-15T09:20:49;99602.06;;;5.71;100.00
19526;BME280;9907;42.676;26.348;2023-01-15T09:23:15;99591.34;;;5.73;100.00
19526;BME280;9907;42.676;26.348;2023-01-15T09:25:53;99601.66;;;5.77;100.00
19526;BME280;9907;42.676;26.348;2023-01-15T09:28:18;99593.63;;;5.79;100.00
19526;BME280;9907;42.676;26.348;2023-01-15T09:30:44;99580.47;;;5.77;100.00
19526;BME280;9907;42.676;26.348;2023-01-15T09:33:09;99579.41;;;5.66;100.00
19526;BME280;9907;42.676;26.348;2023-01-15T09:35:35;99572.97;;;5.70;100.00
19526;BME280;9907;42.676;26.348;2023-01-15T09:38:01;99573.47;;;5.76;100.00
19526;BME280;9907;42.676;26.348;2023-01-15T09:40:52;99575.09;;;5.79;100.00
19526;BME280;9907;42.676;26.348;2023-01-15T09:46:11;99567.41;;;5.74;100.00
19526;BME280;9907;42.676;26.348;2023-01-15T09:51:37;99568.25;;;5.75;100.00
19526;BME280;9907;42.676;26.348;2023-01-15T09:56:44;99557.19;;;5.82;100.00
19526;BME280;9907;42.676;26.348;2023-01-15T09:59:33;99541.09;;;5.85;100.00
19526;BME280;9907;42.676;26.348;2023-01-15T10:02:04;99541.09;;;5.85;100.00
19526;BME280;9907;42.676;26.348;2023-01-15T10:04:42;99539.03;;;5.91;100.00
19526;BME280;9907;42.676;26.348;2023-01-15T10:07:29;99537.56;;;5.85;100.00
19526;BME280;9907;42.676;26.348;2023-01-15T10:10:02;99535.41;;;5.77;100.00
19526;BME280;9907;42.676;26.348;2023-01-15T10:12:29;99530.31;;;5.88;100.00
19526;BME280;9907;42.676;26.348;2023-01-15T10:17:37;99525.38;;;5.97;100.00
19526;BME280;9907;42.676;26.348;2023-01-15T10:20:12;99518.75;;;6.04;100.00
19526;BME280;9907;42.676;26.348;2023-01-15T10:25:54;99514.22;;;6.06;100.00
19526;BME280;9907;42.676;26.348;2023-01-15T10:28:27;99507.94;;;6.07;100.00
19526;BME280;9907;42.676;26.348;2023-01-15T10:30:54;99512.50;;;6.05;100.00
19526;BME280;9907;42.676;26.348;2023-01-15T10:36:09;99507.72;;;6.10;100.00
19526;BME280;9907;42.676;26.348;2023-01-15T10:41:40;99490.38;;;6.18;100.00
19526;BME280;9907;42.676;26.348;2023-01-15T10:44:36;99488.94;;;6.27;100.00
19526;BME280;9907;42.676;26.348;2023-01-15T10:47:11;99485.03;;;6.32;100.00
19526;BME280;9907;42.676;26.348;2023-01-15T10:49:40;99480.38;;;6.36;100.00
19526;BME280;9907;42.676;26.348;2023-01-15T10:52:24;99475.63;;;6.41;100.00
19526;BME280;9907;42.676;26.348;2023-01-15T10:55:02;99472.13;;;6.41;100.00
19526;BME280;9907;42.676;26.348;2023-01-15T10:57:55;99468.97;;;6.48;100.00
19526;BME280;9907;42.676;26.348;2023-01-15T11:00:25;99461.34;;;6.56;100.00
19526;BME280;9907;42.676;26.348;2023-01-15T11:05:27;99451.06;;;6.64;100.00
19526;BME280;9907;42.676;26.348;2023-01-15T11:07:54;99449.06;;;6.68;100.00
19526;BME280;9907;42.676;26.348;2023-01-15T11:10:21;99438.97;;;6.73;100.00
19526;BME280;9907;42.676;26.348;2023-01-15T11:12:54;99446.63;;;6.77;100.00
19526;BME280;9907;42.676;26.348;2023-01-15T11:15:39;99433.91;;;6.82;100.00
19526;BME280;9907;42.676;26.348;2023-01-15T11:18:30;99436.97;;;6.89;100.00
19526;BME280;9907;42.676;26.348;2023-01-15T11:21:18;99427.94;;;6.92;100.00
19526;BME280;9907;42.676;26.348;2023-01-15T11:23:45;99434.97;;;6.93;100.00
19526;BME280;9907;42.676;26.348;2023-01-15T11:26:38;99424.25;;;6.94;100.00
19526;BME280;9907;42.676;26.348;2023-01-15T11:29:13;99418.81;;;6.96;100.00
19526;BME280;9907;42.676;26.348;2023-01-15T11:31:40;99421.38;;;6.97;100.00
19526;BME280;9907;42.676;26.348;2023-01-15T11:34:17;99419.13;;;7.04;100.00
19526;BME280;9907;42.676;26.348;2023-01-15T11:36:43;99411.81;;;7.07;100.00
19526;BME280;9907;42.676;26.348;2023-01-15T11:39:25;99417.03;;;7.09;100.00
19526;BME280;9907;42.676;26.348;2023-01-15T11:42:11;99421.34;;;7.10;100.00
19526;BME280;9907;42.676;26.348;2023-01-15T11:44:57;99405.22;;;7.13;100.00
19526;BME280;9907;42.676;26.348;2023-01-15T11:47:52;99413.72;;;7.18;100.00
19526;BME280;9907;42.676;26.348;2023-01-15T11:50:46;99402.88;;;7.21;100.00
19526;BME280;9907;42.676;26.348;2023-01-15T11:53:23;99405.53;;;7.21;100.00
19526;BME280;9907;42.676;26.348;2023-01-15T11:55:59;99402.03;;;7.20;100.00
19526;BME280;9907;42.676;26.348;2023-01-15T11:58:32;99395.66;;;7.23;100.00
19526;BME280;9907;42.676;26.348;2023-01-15T12:00:58;99391.81;;;7.27;100.00
19526;BME280;9907;42.676;26.348;2023-01-15T12:03:27;99383.53;;;7.31;100.00
19526;BME280;9907;42.676;26.348;2023-01-15T12:05:58;99389.66;;;7.32;100.00
19526;BME280;9907;42.676;26.348;2023-01-15T12:16:47;99363.94;;;7.45;100.00
19526;BME280;9907;42.676;26.348;2023-01-15T12:19:39;99366.38;;;7.48;100.00
19526;BME280;9907;42.676;26.348;2023-01-15T12:22:25;99367.94;;;7.51;100.00
19526;BME280;9907;42.676;26.348;2023-01-15T12:25:04;99364.00;;;7.56;100.00
19526;BME280;9907;42.676;26.348;2023-01-15T12:27:42;99370.81;;;7.60;100.00
19526;BME280;9907;42.676;26.348;2023-01-15T12:32:41;99360.91;;;7.62;100.00
19526;BME280;9907;42.676;26.348;2023-01-15T12:35:33;99358.00;;;7.65;100.00
19526;BME280;9907;42.676;26.348;2023-01-15T12:40:53;99361.19;;;7.70;100.00
19526;BME280;9907;42.676;26.348;2023-01-15T12:43:29;99356.84;;;7.69;100.00
19526;BME280;9907;42.676;26.348;2023-01-15T12:46:22;99361.19;;;7.70;100.00
19526;BME280;9907;42.676;26.348;2023-01-15T12:48:57;99346.19;;;7.69;100.00
19526;BME280;9907;42.676;26.348;2023-01-15T12:52:07;99347.91;;;7.70;100.00
19526;BME280;9907;42.676;26.348;2023-01-15T12:55:35;99346.09;;;7.71;100.00
19526;BME280;9907;42.676;26.348;2023-01-15T12:57:36;99339.81;;;7.72;100.00
19526;BME280;9907;42.676;26.348;2023-01-15T13:00:24;99337.03;;;7.73;100.00
19526;BME280;9907;42.676;26.348;2023-01-15T13:03:02;99345.41;;;7.56;100.00
19526;BME280;9907;42.676;26.348;2023-01-15T13:05:37;99344.94;;;7.62;100.00
19526;BME280;9907;42.676;26.348;2023-01-15T13:08:14;99352.50;;;7.68;100.00
19526;BME280;9907;42.676;26.348;2023-01-15T13:10:44;99345.16;;;7.72;100.00
19526;BME280;9907;42.676;26.348;2023-01-15T13:13:14;99339.59;;;7.75;100.00
19526;BME280;9907;42.676;26.348;2023-01-15T13:15:54;99335.00;;;7.77;100.00
19526;BME280;9907;42.676;26.348;2023-01-15T13:18:45;99339.38;;;7.78;100.00
19526;BME280;9907;42.676;26.348;2023-01-15T13:21:16;99334.06;;;7.78;100.00
19526;BME280;9907;42.676;26.348;2023-01-15T13:37:32;99332.66;;;7.72;100.00
19526;BME280;9907;42.676;26.348;2023-01-15T13:40:28;99330.00;;;7.72;100.00
19526;BME280;9907;42.676;26.348;2023-01-15T13:42:58;99333.66;;;7.71;100.00
19526;BME280;9907;42.676;26.348;2023-01-15T13:45:41;99334.94;;;7.66;100.00
19526;BME280;9907;42.676;26.348;2023-01-15T13:48:12;99339.41;;;7.65;100.00
19526;BME280;9907;42.676;26.348;2023-01-15T13:50:53;99326.25;;;7.64;100.00
19526;BME280;9907;42.676;26.348;2023-01-15T13:55:58;99340.31;;;7.53;100.00
19526;BME280;9907;42.676;26.348;2023-01-15T13:58:28;99331.75;;;7.37;100.00
19526;BME280;9907;42.676;26.348;2023-01-15T14:06:43;99326.09;;;7.42;100.00
19526;BME280;9907;42.676;26.348;2023-01-15T14:15:00;99318.91;;;7.18;100.00
19526;BME280;9907;42.676;26.348;2023-01-15T14:20:37;99311.72;;;7.20;100.00
19526;BME280;9907;42.676;26.348;2023-01-15T14:26:11;99322.13;;;7.11;100.00
19526;BME280;9907;42.676;26.348;2023-01-15T14:28:47;99318.19;;;7.04;100.00
19526;BME280;9907;42.676;26.348;2023-01-15T14:34:21;99309.06;;;6.95;100.00
19526;BME280;9907;42.676;26.348;2023-01-15T14:42:25;99313.00;;;6.90;100.00
19526;BME280;9907;42.676;26.348;2023-01-15T14:47:49;99305.69;;;6.93;100.00
19526;BME280;9907;42.676;26.348;2023-01-15T14:52:51;99302.84;;;6.83;100.00
19526;BME280;9907;42.676;26.348;2023-01-15T14:55:18;99301.53;;;6.76;100.00
19526;BME280;9907;42.676;26.348;2023-01-15T14:57:53;99308.97;;;6.84;100.00
19526;BME280;9907;42.676;26.348;2023-01-15T15:00:22;99299.19;;;6.84;100.00